Rusty Zeller — WDF3821 — position and weather

sailwx.info

Track history (hours):
 
Tides and Currents Weather Stations Pressure Air Temp Water Temp Dewpoint Dewpoint Depression Visibility Wind Speed Wind Dir Waves Ship Positions

Rusty Zeller

Owner: Florida Marine Transporters, Inc., Mandeville, LA. More information available from US FCC via Universal Licensing System and Coast Guard Vessel Documentation Center.

Last reported at 2018-May-16 08:40 UTC. Time now 2018-May-27 12:03 UTC.
Position N 32°41' W 091°04'.
Warning: this ship's position is 11 days out of date.

Length 43 m; draft 3.2 m.

Type: Other ship. MMSI: 367444420.

Date/timePositionNaut miles runAvg speedWind from/ knotsBaromVisibWave heightAir tempDewpointWater temp
2018-May-16 08:40N 32°41' W 091°04'1 4.4
2018-May-16 08:23N 32°41' W 091°06'2 4.7
2018-May-16 08:01N 32°40' W 091°08'2 4.6
2018-May-16 07:30N 32°38' W 091°09'3 4.9
2018-May-16 06:59N 32°36' W 091°08'2 5.0
2018-May-16 06:30N 32°34' W 091°06'2 4.4
2018-May-16 06:01N 32°32' W 091°06'2 4.9
2018-May-16 05:30N 32°29' W 091°07'2 4.7
2018-May-16 05:00N 32°27' W 091°05'2 5.0
2018-May-16 04:30N 32°26' W 091°03'3 5.0
2018-May-16 04:00N 32°25' W 090°60'2 4.2
2018-May-16 03:30N 32°23' W 090°60'2 3.6
2018-May-16 03:00N 32°21' W 090°60'2 4.6
2018-May-16 02:30N 32°21' W 090°57'3 5.0
2018-May-16 02:00N 32°20' W 090°54'2 4.2
2018-May-16 01:30N 32°18' W 090°55'2 4.8
2018-May-16 01:00N 32°17' W 090°57'2 4.5
2018-May-16 00:31N 32°15' W 090°59'2 4.9
2018-May-16 00:00N 32°12' W 090°59'2 4.3
2018-May-15 23:30N 32°10' W 090°60'2 4.7
2018-May-15 23:00N 32°08' W 091°00'2 4.4
2018-May-15 22:29N 32°07' W 091°03'2 4.9
2018-May-15 22:01N 32°08' W 091°06'5 2.2
2018-May-15 19:48N 32°03' W 091°04'1 4.8
2018-May-15 19:31N 32°02' W 091°04'69 2.0
2018-May-14 09:27N 31°00' W 091°40'0 0.2
2018-May-14 09:01N 31°00' W 091°40'  
2018-May-06 15:30N 32°00' W 091°05'4 8.4
2018-May-06 15:00N 32°05' W 091°05'3 5.5
2018-May-06 14:27N 32°08' W 091°05'4 8.1
2018-May-06 14:00N 32°08' W 091°00'5 9.6
2018-May-06 13:30N 32°13' W 090°59'4 8.8
2018-May-06 13:00N 32°17' W 090°57'4 8.0
2018-May-06 12:30N 32°20' W 090°55'2 4.0
2018-May-06 12:00N 32°21' W 090°57'0 0.1
2018-May-06 11:30N 32°21' W 090°57'0 0.0
2018-May-06 11:00N 32°21' W 090°57'0 0.0
2018-May-06 10:30N 32°21' W 090°57'0 0.0
2018-May-06 10:00N 32°21' W 090°57'0 0.0
2018-May-06 09:30N 32°21' W 090°57'0 0.0
2018-May-06 09:00N 32°21' W 090°57'  
Track history (hours):
 
Tides and Currents Weather Stations Pressure Air Temp Water Temp Dewpoint Dewpoint Depression Visibility Wind Speed Wind Dir Waves Ship Positions

Rusty Zeller

Owner: Florida Marine Transporters, Inc., Mandeville, LA. More information available from US FCC via Universal Licensing System and Coast Guard Vessel Documentation Center.

Last reported at 2018-May-16 08:40 UTC. Time now 2018-May-27 12:03 UTC.
Position N 32°41' W 091°04'.
Warning: this ship's position is 11 days out of date.

Length 43 m; draft 3.2 m.

Type: Other ship. MMSI: 367444420.

Date/timePositionNaut miles runAvg speedWind from/ knotsBaromVisibWave heightAir tempDewpointWater temp
2018-May-16 08:40N 32°41' W 091°04'1 4.4
2018-May-16 08:23N 32°41' W 091°06'2 4.7
2018-May-16 08:01N 32°40' W 091°08'2 4.6
2018-May-16 07:30N 32°38' W 091°09'3 4.9
2018-May-16 06:59N 32°36' W 091°08'2 5.0
2018-May-16 06:30N 32°34' W 091°06'2 4.4
2018-May-16 06:01N 32°32' W 091°06'2 4.9
2018-May-16 05:30N 32°29' W 091°07'2 4.7
2018-May-16 05:00N 32°27' W 091°05'2 5.0
2018-May-16 04:30N 32°26' W 091°03'3 5.0
2018-May-16 04:00N 32°25' W 090°60'2 4.2
2018-May-16 03:30N 32°23' W 090°60'2 3.6
2018-May-16 03:00N 32°21' W 090°60'2 4.6
2018-May-16 02:30N 32°21' W 090°57'3 5.0
2018-May-16 02:00N 32°20' W 090°54'2 4.2
2018-May-16 01:30N 32°18' W 090°55'2 4.8
2018-May-16 01:00N 32°17' W 090°57'2 4.5
2018-May-16 00:31N 32°15' W 090°59'2 4.9
2018-May-16 00:00N 32°12' W 090°59'2 4.3
2018-May-15 23:30N 32°10' W 090°60'2 4.7
2018-May-15 23:00N 32°08' W 091°00'2 4.4
2018-May-15 22:29N 32°07' W 091°03'2 4.9
2018-May-15 22:01N 32°08' W 091°06'5 2.2
2018-May-15 19:48N 32°03' W 091°04'1 4.8
2018-May-15 19:31N 32°02' W 091°04'69 2.0
2018-May-14 09:27N 31°00' W 091°40'0 0.2
2018-May-14 09:01N 31°00' W 091°40'  
2018-May-06 15:30N 32°00' W 091°05'4 8.4
2018-May-06 15:00N 32°05' W 091°05'3 5.5
2018-May-06 14:27N 32°08' W 091°05'4 8.1
2018-May-06 14:00N 32°08' W 091°00'5 9.6
2018-May-06 13:30N 32°13' W 090°59'4 8.8
2018-May-06 13:00N 32°17' W 090°57'4 8.0
2018-May-06 12:30N 32°20' W 090°55'2 4.0
2018-May-06 12:00N 32°21' W 090°57'0 0.1
2018-May-06 11:30N 32°21' W 090°57'0 0.0
2018-May-06 11:00N 32°21' W 090°57'0 0.0
2018-May-06 10:30N 32°21' W 090°57'0 0.0
2018-May-06 10:00N 32°21' W 090°57'0 0.0
2018-May-06 09:30N 32°21' W 090°57'0 0.0
2018-May-06 09:00N 32°21' W 090°57'  

Dump ship's entire track history